Time;durP1;ratioP1;P1;durP2;ratioP2;P2;SDS_P1;SDS_P2;PMS_P1;PMS_P2;Temp;Humidity;BMP_temperature;BMP_pressure;BME280_temperature;BME280_humidity;BME280_pressure;Samples;Min_cycle;Max_cycle;Signal;HPM_P1;HPM_P2
2021/12/23 00:01:54;;;;;;;43.55;20.30;;;;;;;;;;5006434;28;20448;-70
2021/12/23 00:04:20;;;;;;;40.00;18.17;;;;;;;;;;5009901;28;20148;-70
2021/12/23 00:06:47;;;;;;;40.38;19.63;;;;;;;;;;5009439;28;20153;-70
2021/12/23 00:09:13;;;;;;;38.33;17.30;;;;;;;;;;5008593;28;20137;-70
2021/12/23 00:11:40;;;;;;;36.90;17.58;;;;;;;;;;5005326;28;20567;-70
2021/12/23 00:14:10;;;;;;;38.83;20.00;;;;;;;;;;5006917;28;20310;-70
2021/12/23 00:16:44;;;;;;;37.92;18.08;;;;;;;;;;5006387;28;20052;-70
2021/12/23 00:19:21;;;;;;;40.70;22.58;;;;;;;;;;5006082;28;20538;-70
2021/12/23 00:24:33;;;;;;;34.75;17.67;;;;;;;;;;5006986;28;20056;-70
2021/12/23 00:27:00;;;;;;;35.35;15.88;;;;;;;;;;5008173;28;20542;-70
2021/12/23 00:29:28;;;;;;;31.52;14.80;;;;;;;;;;5002276;28;20151;-70
2021/12/23 00:31:54;;;;;;;38.20;16.52;;;;;;;;;;5007062;28;20129;-70
2021/12/23 00:34:21;;;;;;;45.03;18.58;;;;;;;;;;5004608;28;20500;-70
2021/12/23 00:36:48;;;;;;;33.72;17.55;;;;;;;;;;5008266;28;20058;-70
2021/12/23 00:39:16;;;;;;;34.08;16.70;;;;;;;;;;5006891;28;20042;-70
2021/12/23 00:41:44;;;;;;;32.28;14.80;;;;;;;;;;5006699;28;20065;-70
2021/12/23 00:44:11;;;;;;;34.60;17.08;;;;;;;;;;5006530;28;20052;-71
2021/12/23 00:46:40;;;;;;;32.50;15.43;;;;;;;;;;5009642;28;20172;-70
2021/12/23 00:49:06;;;;;;;39.88;19.38;;;;;;;;;;4997842;28;20149;-70
2021/12/23 00:51:33;;;;;;;35.72;17.38;;;;;;;;;;4986998;28;20053;-70
2021/12/23 00:54:04;;;;;;;38.40;17.65;;;;;;;;;;4987668;28;20073;-70
2021/12/23 00:56:35;;;;;;;32.60;15.10;;;;;;;;;;4988011;28;20046;-70
2021/12/23 00:59:02;;;;;;;34.55;16.30;;;;;;;;;;4981367;28;20042;-70
2021/12/23 01:01:29;;;;;;;32.13;16.48;;;;;;;;;;4991744;28;20049;-70
2021/12/23 01:03:57;;;;;;;36.17;17.50;;;;;;;;;;4985206;28;20081;-70
2021/12/23 01:06:23;;;;;;;37.83;17.05;;;;;;;;;;4988677;28;20129;-70
2021/12/23 01:08:50;;;;;;;34.38;15.82;;;;;;;;;;4987879;28;20145;-70
2021/12/23 01:11:16;;;;;;;36.13;16.45;;;;;;;;;;4985208;28;20150;-70
2021/12/23 01:13:58;;;;;;;40.40;16.90;;;;;;;;;;4985061;28;20073;-70
2021/12/23 01:16:37;;;;;;;39.22;16.40;;;;;;;;;;4984784;28;20129;-70
2021/12/23 01:19:11;;;;;;;34.55;16.38;;;;;;;;;;4986532;28;20057;-70
2021/12/23 01:21:38;;;;;;;37.10;15.85;;;;;;;;;;4989714;28;20061;-70
2021/12/23 01:24:08;;;;;;;35.95;16.17;;;;;;;;;;4989910;28;20146;-70
2021/12/23 01:26:35;;;;;;;35.58;16.08;;;;;;;;;;4987794;28;20053;-70
2021/12/23 01:29:01;;;;;;;31.85;14.40;;;;;;;;;;4986902;28;20664;-70
2021/12/23 01:31:30;;;;;;;35.67;17.30;;;;;;;;;;4988088;28;20077;-70
2021/12/23 01:33:57;;;;;;;34.63;16.17;;;;;;;;;;4987906;28;20415;-70
2021/12/23 01:36:25;;;;;;;31.23;15.32;;;;;;;;;;4986657;28;20050;-70
2021/12/23 01:38:52;;;;;;;35.60;17.23;;;;;;;;;;4987669;28;20084;-70
2021/12/23 01:41:21;;;;;;;34.60;16.05;;;;;;;;;;4988861;28;20411;-70
2021/12/23 01:43:47;;;;;;;37.40;15.60;;;;;;;;;;4983693;28;20110;-70
2021/12/23 01:46:15;;;;;;;37.38;15.85;;;;;;;;;;4984809;28;20050;-70
2021/12/23 01:48:42;;;;;;;39.97;17.75;;;;;;;;;;4992105;28;20054;-70
2021/12/23 01:51:09;;;;;;;43.95;20.27;;;;;;;;;;5007573;28;20577;-70
2021/12/23 01:53:37;;;;;;;33.05;15.85;;;;;;;;;;5006866;28;20069;-70
2021/12/23 01:56:04;;;;;;;36.40;16.73;;;;;;;;;;5005545;28;20052;-70
2021/12/23 01:58:31;;;;;;;30.92;14.93;;;;;;;;;;5005623;28;20141;-71
2021/12/23 02:00:57;;;;;;;33.22;15.82;;;;;;;;;;5007792;28;20129;-70
2021/12/23 02:03:24;;;;;;;36.88;16.92;;;;;;;;;;4989255;28;20070;-71
2021/12/23 02:05:50;;;;;;;32.05;16.02;;;;;;;;;;5006522;28;20125;-70
2021/12/23 02:08:17;;;;;;;37.05;15.52;;;;;;;;;;5004547;28;20080;-70
2021/12/23 02:10:45;;;;;;;39.05;17.67;;;;;;;;;;5011014;28;20475;-70
2021/12/23 02:13:12;;;;;;;32.72;15.27;;;;;;;;;;5007129;28;20080;-70
2021/12/23 02:15:38;;;;;;;34.58;15.93;;;;;;;;;;5007519;28;20049;-70
2021/12/23 02:18:05;;;;;;;39.72;17.00;;;;;;;;;;5003554;28;20133;-70
2021/12/23 02:20:35;;;;;;;33.53;15.98;;;;;;;;;;5004936;28;20152;-70
2021/12/23 02:23:03;;;;;;;37.83;16.38;;;;;;;;;;5005346;28;20068;-70
2021/12/23 02:25:29;;;;;;;38.03;15.13;;;;;;;;;;5006823;28;20145;-70
2021/12/23 02:27:57;;;;;;;34.10;14.85;;;;;;;;;;5006321;28;20133;-70
2021/12/23 02:30:26;;;;;;;35.15;16.88;;;;;;;;;;5004419;28;20119;-70
2021/12/23 02:32:53;;;;;;;34.90;15.68;;;;;;;;;;5005661;28;20480;-70
2021/12/23 02:35:22;;;;;;;35.45;15.55;;;;;;;;;;5005486;28;20081;-70
2021/12/23 02:37:51;;;;;;;34.00;16.05;;;;;;;;;;5003062;28;20073;-70
2021/12/23 02:40:28;;;;;;;34.83;14.93;;;;;;;;;;5003582;28;20057;-70
2021/12/23 02:42:56;;;;;;;38.20;17.20;;;;;;;;;;5003168;28;20099;-70
2021/12/23 02:45:22;;;;;;;37.47;15.02;;;;;;;;;;5004802;28;20560;-70
2021/12/23 02:47:50;;;;;;;36.53;16.33;;;;;;;;;;5005019;28;20578;-70
2021/12/23 02:50:16;;;;;;;33.95;16.08;;;;;;;;;;5003745;28;20173;-70
2021/12/23 02:52:43;;;;;;;40.75;16.50;;;;;;;;;;5005365;28;20192;-70
2021/12/23 02:55:11;;;;;;;36.40;15.77;;;;;;;;;;5005927;28;20129;-70
2021/12/23 02:57:37;;;;;;;36.28;15.43;;;;;;;;;;5006038;28;20132;-70
2021/12/23 03:00:08;;;;;;;39.22;16.73;;;;;;;;;;5004292;28;20085;-70
2021/12/23 03:02:38;;;;;;;39.17;16.42;;;;;;;;;;5006105;28;20133;-70
2021/12/23 03:05:05;;;;;;;41.03;16.40;;;;;;;;;;5004576;28;20432;-70
2021/12/23 03:07:32;;;;;;;39.50;17.58;;;;;;;;;;4988975;28;20089;-70
2021/12/23 03:09:58;;;;;;;39.22;16.05;;;;;;;;;;5005476;28;20555;-70
2021/12/23 03:12:26;;;;;;;37.38;17.63;;;;;;;;;;5003017;28;20140;-70
2021/12/23 03:14:53;;;;;;;38.95;16.90;;;;;;;;;;5007722;28;20137;-69
2021/12/23 03:17:19;;;;;;;42.70;17.85;;;;;;;;;;5008128;28;20152;-70
2021/12/23 03:19:46;;;;;;;39.17;17.45;;;;;;;;;;5006573;28;20136;-70
2021/12/23 03:22:12;;;;;;;41.60;16.55;;;;;;;;;;5007695;28;20132;-70
2021/12/23 03:24:39;;;;;;;38.38;16.23;;;;;;;;;;5009734;28;20152;-72
2021/12/23 03:27:06;;;;;;;41.85;16.38;;;;;;;;;;5013348;28;20037;-70
2021/12/23 03:29:34;;;;;;;40.28;16.60;;;;;;;;;;5005465;28;20072;-70
2021/12/23 03:32:01;;;;;;;39.67;17.08;;;;;;;;;;5007432;28;20728;-70
2021/12/23 03:34:27;;;;;;;40.78;17.45;;;;;;;;;;5009201;28;20053;-69
2021/12/23 03:36:54;;;;;;;43.47;16.67;;;;;;;;;;5009345;28;20140;-72
2021/12/23 03:39:21;;;;;;;36.88;14.85;;;;;;;;;;5009014;28;20129;-70
2021/12/23 03:41:47;;;;;;;41.28;16.60;;;;;;;;;;5008919;28;20682;-70
2021/12/23 03:44:14;;;;;;;41.53;16.73;;;;;;;;;;5005988;28;20084;-70
2021/12/23 03:46:43;;;;;;;42.00;17.52;;;;;;;;;;5009321;28;20125;-70
2021/12/23 03:49:10;;;;;;;47.15;17.90;;;;;;;;;;5009402;28;20157;-70
2021/12/23 03:51:36;;;;;;;46.95;17.95;;;;;;;;;;5009370;28;20609;-72
2021/12/23 03:54:03;;;;;;;41.90;16.27;;;;;;;;;;5008255;28;20156;-70
2021/12/23 03:56:30;;;;;;;42.75;16.38;;;;;;;;;;5007641;28;20121;-72
2021/12/23 03:58:57;;;;;;;41.78;18.42;;;;;;;;;;5002312;28;20172;-69
2021/12/23 04:01:25;;;;;;;44.65;17.08;;;;;;;;;;5007397;28;20057;-69
2021/12/23 04:03:53;;;;;;;37.97;16.60;;;;;;;;;;5009034;28;20140;-69
2021/12/23 04:06:20;;;;;;;49.95;18.80;;;;;;;;;;5007606;28;20081;-72
2021/12/23 04:08:47;;;;;;;42.00;15.85;;;;;;;;;;5008438;28;20524;-70
2021/12/23 04:11:14;;;;;;;44.60;17.33;;;;;;;;;;5008622;28;20498;-69
2021/12/23 04:13:40;;;;;;;44.85;16.67;;;;;;;;;;5006047;28;20045;-69
2021/12/23 04:16:07;;;;;;;38.05;15.68;;;;;;;;;;4989868;28;20146;-69
2021/12/23 04:18:34;;;;;;;45.30;16.25;;;;;;;;;;5006149;28;20136;-69
2021/12/23 04:21:02;;;;;;;41.40;14.00;;;;;;;;;;5006885;28;20065;-69
2021/12/23 04:23:31;;;;;;;46.08;16.60;;;;;;;;;;5006503;28;20084;-70
2021/12/23 04:25:59;;;;;;;44.22;17.73;;;;;;;;;;5008281;28;20042;-70
2021/12/23 04:28:26;;;;;;;49.83;16.80;;;;;;;;;;5006470;28;20132;-69
2021/12/23 04:30:53;;;;;;;40.75;15.55;;;;;;;;;;5004621;28;20148;-70
2021/12/23 04:33:19;;;;;;;43.30;14.90;;;;;;;;;;5005073;28;20073;-70
2021/12/23 04:35:46;;;;;;;39.72;15.75;;;;;;;;;;5006649;28;20692;-70
2021/12/23 04:38:14;;;;;;;42.88;17.98;;;;;;;;;;5008178;28;20464;-70
2021/12/23 04:40:40;;;;;;;42.85;17.50;;;;;;;;;;5006561;28;20132;-70
2021/12/23 04:43:08;;;;;;;35.90;14.32;;;;;;;;;;5005098;28;20076;-72
2021/12/23 04:45:35;;;;;;;41.07;15.10;;;;;;;;;;5005421;28;20054;-70
2021/12/23 04:48:02;;;;;;;41.00;14.75;;;;;;;;;;5005680;28;20527;-70
2021/12/23 04:50:28;;;;;;;39.83;16.27;;;;;;;;;;5006412;28;20072;-70
2021/12/23 04:52:55;;;;;;;50.90;17.55;;;;;;;;;;5007567;28;20484;-70
2021/12/23 04:55:23;;;;;;;33.83;14.85;;;;;;;;;;5004913;28;20556;-70
2021/12/23 04:57:49;;;;;;;52.17;16.95;;;;;;;;;;5004304;28;20137;-70
2021/12/23 05:00:17;;;;;;;42.97;16.13;;;;;;;;;;5003920;28;20046;-70
2021/12/23 05:02:44;;;;;;;44.38;16.42;;;;;;;;;;5004191;28;20064;-69
2021/12/23 05:05:11;;;;;;;42.67;14.90;;;;;;;;;;5002442;28;20145;-69
2021/12/23 05:07:38;;;;;;;36.93;15.13;;;;;;;;;;5003998;28;20048;-70
2021/12/23 05:10:06;;;;;;;44.70;16.77;;;;;;;;;;5003243;28;20145;-70
2021/12/23 05:12:36;;;;;;;39.92;15.02;;;;;;;;;;5003867;28;20195;-69
2021/12/23 05:15:03;;;;;;;37.88;15.43;;;;;;;;;;5000924;28;20100;-70
2021/12/23 05:17:29;;;;;;;37.05;14.88;;;;;;;;;;5004341;28;20497;-70
2021/12/23 05:19:56;;;;;;;36.70;13.65;;;;;;;;;;5000173;28;20048;-70
2021/12/23 05:22:23;;;;;;;48.20;17.02;;;;;;;;;;5002806;28;20145;-70
2021/12/23 05:24:50;;;;;;;43.47;16.33;;;;;;;;;;5006383;28;20144;-70
2021/12/23 05:27:16;;;;;;;41.97;15.13;;;;;;;;;;5007955;28;20081;-70
2021/12/23 05:29:44;;;;;;;37.13;13.63;;;;;;;;;;5005605;28;20073;-73
2021/12/23 05:32:11;;;;;;;42.97;15.23;;;;;;;;;;5003662;28;20125;-72
2021/12/23 05:34:38;;;;;;;35.65;13.93;;;;;;;;;;5007437;28;20069;-70
2021/12/23 05:37:04;;;;;;;52.67;17.55;;;;;;;;;;5006166;28;20437;-70
2021/12/23 05:39:31;;;;;;;38.25;15.40;;;;;;;;;;5005613;28;20134;-72
2021/12/23 05:41:57;;;;;;;39.42;15.70;;;;;;;;;;5003703;28;20060;-72
2021/12/23 05:44:24;;;;;;;44.87;16.40;;;;;;;;;;5001902;28;20132;-70
2021/12/23 05:46:52;;;;;;;46.83;15.90;;;;;;;;;;5007973;28;20080;-70
2021/12/23 05:49:18;;;;;;;36.10;14.43;;;;;;;;;;5004900;28;20296;-70
2021/12/23 05:51:45;;;;;;;48.47;16.73;;;;;;;;;;5007014;28;20124;-70
2021/12/23 05:54:11;;;;;;;44.10;14.75;;;;;;;;;;5004569;28;20140;-70
2021/12/23 05:56:38;;;;;;;40.20;16.27;;;;;;;;;;5006083;28;20140;-70
2021/12/23 05:59:05;;;;;;;39.90;15.03;;;;;;;;;;4999470;28;20575;-70
2021/12/23 06:01:31;;;;;;;39.63;14.50;;;;;;;;;;5004136;28;20550;-69
2021/12/23 06:03:59;;;;;;;44.83;17.33;;;;;;;;;;5004488;28;20060;-70
2021/12/23 06:06:26;;;;;;;32.23;12.57;;;;;;;;;;5003892;28;20145;-70
2021/12/23 06:08:52;;;;;;;38.47;14.93;;;;;;;;;;4999793;28;20085;-70
2021/12/23 06:11:19;;;;;;;42.37;14.40;;;;;;;;;;5002030;28;20060;-70
2021/12/23 06:13:45;;;;;;;36.30;15.18;;;;;;;;;;5003068;28;20153;-70
2021/12/23 06:16:12;;;;;;;41.07;16.20;;;;;;;;;;5005025;28;20176;-70
2021/12/23 06:18:39;;;;;;;47.13;15.53;;;;;;;;;;5001545;28;20060;-70
2021/12/23 06:21:07;;;;;;;45.00;16.87;;;;;;;;;;5001581;28;20475;-70
2021/12/23 06:23:33;;;;;;;49.03;16.53;;;;;;;;;;5003807;28;20078;-70
2021/12/23 06:26:00;;;;;;;46.27;16.00;;;;;;;;;;5002923;28;20532;-70
2021/12/23 06:28:27;;;;;;;48.17;17.07;;;;;;;;;;5004743;28;20133;-70
2021/12/23 06:30:53;;;;;;;49.83;17.37;;;;;;;;;;5000078;28;20049;-70
2021/12/23 06:33:20;;;;;;;40.83;15.83;;;;;;;;;;5000858;28;20572;-70
2021/12/23 06:35:46;;;;;;;45.70;15.57;;;;;;;;;;5007024;28;20107;-70
2021/12/23 06:38:14;;;;;;;54.07;16.03;;;;;;;;;;5003959;28;20120;-70
2021/12/23 06:40:41;;;;;;;39.17;14.70;;;;;;;;;;5005605;28;20050;-70
2021/12/23 06:43:08;;;;;;;38.17;13.23;;;;;;;;;;5005689;28;20141;-70
2021/12/23 06:45:35;;;;;;;46.87;15.43;;;;;;;;;;5003648;28;20443;-70
2021/12/23 06:48:02;;;;;;;47.93;16.33;;;;;;;;;;5009473;28;20480;-71
2021/12/23 06:50:28;;;;;;;44.83;14.83;;;;;;;;;;5011237;28;20085;-70
2021/12/23 06:52:56;;;;;;;39.23;14.30;;;;;;;;;;5007379;28;20053;-70
2021/12/23 06:55:24;;;;;;;55.17;15.53;;;;;;;;;;5013685;28;20061;-70
2021/12/23 06:57:55;;;;;;;34.23;11.93;;;;;;;;;;5005695;28;20428;-70
2021/12/23 07:00:22;;;;;;;44.87;14.33;;;;;;;;;;5011651;28;20440;-70
2021/12/23 07:02:49;;;;;;;45.73;15.37;;;;;;;;;;5010450;28;20140;-70
2021/12/23 07:05:16;;;;;;;43.10;15.33;;;;;;;;;;5010983;28;20544;-70
2021/12/23 07:07:53;;;;;;;42.47;14.97;;;;;;;;;;5012914;28;20130;-70
2021/12/23 07:10:20;;;;;;;39.97;14.23;;;;;;;;;;5010144;28;20054;-70
2021/12/23 07:12:48;;;;;;;35.40;13.33;;;;;;;;;;5007125;28;20181;-70
2021/12/23 07:15:15;;;;;;;38.90;14.93;;;;;;;;;;5008303;28;20148;-70
2021/12/23 07:17:42;;;;;;;43.20;16.43;;;;;;;;;;5011399;28;20136;-70
2021/12/23 07:20:10;;;;;;;53.67;15.37;;;;;;;;;;5012329;28;20081;-70
2021/12/23 07:22:36;;;;;;;41.90;16.97;;;;;;;;;;5010059;28;20128;-70
2021/12/23 07:25:04;;;;;;;42.30;15.50;;;;;;;;;;5008954;28;20132;-70
2021/12/23 07:27:31;;;;;;;39.23;15.63;;;;;;;;;;5011965;28;20129;-70
2021/12/23 07:29:59;;;;;;;42.33;15.67;;;;;;;;;;5006873;28;20498;-70
2021/12/23 07:32:25;;;;;;;36.07;14.90;;;;;;;;;;5010388;28;20077;-70
2021/12/23 07:34:52;;;;;;;42.23;16.77;;;;;;;;;;5011762;28;20137;-70
2021/12/23 07:37:18;;;;;;;46.03;16.63;;;;;;;;;;5013417;28;20314;-70
2021/12/23 07:39:47;;;;;;;40.47;14.17;;;;;;;;;;5007180;28;20129;-70
2021/12/23 07:42:15;;;;;;;41.70;14.68;;;;;;;;;;5016071;28;20156;-70
2021/12/23 07:44:42;;;;;;;39.97;15.40;;;;;;;;;;5007284;28;20058;-70
2021/12/23 07:47:10;;;;;;;38.33;14.57;;;;;;;;;;5009338;28;20136;-70
2021/12/23 07:49:37;;;;;;;43.20;16.40;;;;;;;;;;5009503;28;20060;-70
2021/12/23 07:52:06;;;;;;;38.28;15.18;;;;;;;;;;5011230;28;20518;-70
2021/12/23 07:54:33;;;;;;;45.97;15.75;;;;;;;;;;5011850;28;20137;-70
2021/12/23 07:56:59;;;;;;;41.95;15.95;;;;;;;;;;5009295;28;20128;-70
2021/12/23 07:59:28;;;;;;;43.15;15.00;;;;;;;;;;5002642;28;20127;-70
2021/12/23 08:01:54;;;;;;;43.20;16.02;;;;;;;;;;5006163;28;20057;-70
2021/12/23 08:04:22;;;;;;;39.33;13.73;;;;;;;;;;5007913;28;20077;-70
2021/12/23 08:06:54;;;;;;;47.15;17.23;;;;;;;;;;5006785;28;20437;-70
2021/12/23 08:09:21;;;;;;;46.05;15.13;;;;;;;;;;5006510;28;20046;-70
2021/12/23 08:11:47;;;;;;;38.97;14.27;;;;;;;;;;5004150;28;20137;-70
2021/12/23 08:14:14;;;;;;;41.65;16.30;;;;;;;;;;5005246;28;20114;-70
2021/12/23 08:16:41;;;;;;;43.45;15.07;;;;;;;;;;5008356;28;20539;-70
2021/12/23 08:19:07;;;;;;;37.88;14.27;;;;;;;;;;4986924;28;20137;-70
2021/12/23 08:21:35;;;;;;;44.10;15.38;;;;;;;;;;5007880;28;20558;-70
2021/12/23 08:24:02;;;;;;;37.67;16.05;;;;;;;;;;5010410;28;20134;-70
2021/12/23 08:26:29;;;;;;;41.47;17.30;;;;;;;;;;5011280;28;20133;-70
2021/12/23 08:28:56;;;;;;;40.83;15.90;;;;;;;;;;5013827;28;20058;-71
2021/12/23 08:31:23;;;;;;;41.92;16.10;;;;;;;;;;5007221;28;20149;-70
2021/12/23 08:33:51;;;;;;;44.05;16.20;;;;;;;;;;5007247;28;20149;-71
2021/12/23 08:36:20;;;;;;;51.33;17.45;;;;;;;;;;5008759;28;20077;-70
2021/12/23 08:38:48;;;;;;;46.55;17.52;;;;;;;;;;5008386;28;20145;-70
2021/12/23 08:41:14;;;;;;;46.38;18.35;;;;;;;;;;5008798;28;20549;-70
2021/12/23 08:43:41;;;;;;;41.45;17.83;;;;;;;;;;5008107;28;20923;-70
2021/12/23 08:46:07;;;;;;;49.17;18.45;;;;;;;;;;5004925;28;20125;-70
2021/12/23 08:48:34;;;;;;;47.08;17.77;;;;;;;;;;5002884;28;20135;-70
2021/12/23 08:51:01;;;;;;;52.58;19.17;;;;;;;;;;5001996;28;20061;-70
2021/12/23 08:53:27;;;;;;;47.65;18.15;;;;;;;;;;4983565;28;20137;-70
2021/12/23 08:55:55;;;;;;;46.25;16.13;;;;;;;;;;5007603;28;20060;-70
2021/12/23 08:58:22;;;;;;;46.53;18.88;;;;;;;;;;5003638;28;20038;-70
2021/12/23 09:00:49;;;;;;;52.38;20.23;;;;;;;;;;5009168;28;20153;-70
2021/12/23 09:03:15;;;;;;;47.83;18.40;;;;;;;;;;5002456;28;20987;-70
2021/12/23 09:05:42;;;;;;;43.30;18.88;;;;;;;;;;5001999;28;21080;-70
2021/12/23 09:08:10;;;;;;;43.08;18.23;;;;;;;;;;4995426;28;20157;-70
2021/12/23 09:10:37;;;;;;;49.80;19.83;;;;;;;;;;4993673;28;20111;-69
2021/12/23 09:13:05;;;;;;;45.55;18.40;;;;;;;;;;5002223;28;20104;-70
2021/12/23 09:15:31;;;;;;;44.35;17.27;;;;;;;;;;5002601;28;20140;-70
2021/12/23 09:17:58;;;;;;;44.75;18.63;;;;;;;;;;5004977;28;20053;-70
2021/12/23 09:20:25;;;;;;;45.45;18.17;;;;;;;;;;5004921;28;20136;-70
2021/12/23 09:22:52;;;;;;;36.05;14.68;;;;;;;;;;5004164;28;20511;-70
2021/12/23 09:25:24;;;;;;;41.75;16.42;;;;;;;;;;5005999;28;20133;-70
2021/12/23 09:28:09;;;;;;;44.85;18.52;;;;;;;;;;5002631;28;20532;-70
2021/12/23 09:33:22;;;;;;;43.08;15.75;;;;;;;;;;5006696;28;20068;-70
2021/12/23 09:35:49;;;;;;;37.67;15.52;;;;;;;;;;5007710;28;20607;-70
2021/12/23 09:38:16;;;;;;;41.40;15.57;;;;;;;;;;5006807;28;20045;-70
2021/12/23 09:40:43;;;;;;;42.95;16.27;;;;;;;;;;5003759;28;20092;-70
2021/12/23 09:43:13;;;;;;;47.53;17.77;;;;;;;;;;5003181;28;20140;-70
2021/12/23 09:45:42;;;;;;;36.40;15.18;;;;;;;;;;5003394;28;20140;-70
2021/12/23 09:48:09;;;;;;;38.10;15.40;;;;;;;;;;5009531;28;20743;-70
2021/12/23 09:50:39;;;;;;;37.75;15.40;;;;;;;;;;5006594;28;20074;-70
2021/12/23 09:53:06;;;;;;;40.25;15.88;;;;;;;;;;5007912;28;20475;-70
2021/12/23 09:55:35;;;;;;;34.83;15.27;;;;;;;;;;5006657;28;20132;-70
2021/12/23 09:58:02;;;;;;;41.70;15.38;;;;;;;;;;5004723;28;20054;-70
2021/12/23 10:00:32;;;;;;;32.60;14.63;;;;;;;;;;5005267;28;20141;-70
2021/12/23 10:03:00;;;;;;;32.55;14.45;;;;;;;;;;5002000;28;20100;-70
2021/12/23 10:05:30;;;;;;;32.83;13.98;;;;;;;;;;4987987;28;20663;-70
2021/12/23 10:07:57;;;;;;;30.13;14.00;;;;;;;;;;5007642;28;20129;-70
2021/12/23 10:10:29;;;;;;;27.25;12.05;;;;;;;;;;5006429;28;20416;-70
2021/12/23 10:26:48;;;;;;;29.20;12.75;;;;;;;;;;5004993;28;20060;-70
2021/12/23 10:32:35;;;;;;;31.15;12.82;;;;;;;;;;4998399;28;20109;-70
2021/12/23 10:38:03;;;;;;;29.48;13.07;;;;;;;;;;5003021;28;20049;-70
2021/12/23 10:40:31;;;;;;;33.03;14.45;;;;;;;;;;5006217;28;20132;-70
2021/12/23 10:42:58;;;;;;;28.30;13.88;;;;;;;;;;5000514;28;20054;-70
2021/12/23 10:45:24;;;;;;;30.20;13.75;;;;;;;;;;5003852;28;20056;-70
2021/12/23 10:47:57;;;;;;;34.33;15.02;;;;;;;;;;5003890;28;20069;-70
2021/12/23 10:50:32;;;;;;;36.97;16.77;;;;;;;;;;5001433;28;20061;-70
2021/12/23 10:53:06;;;;;;;32.58;15.50;;;;;;;;;;5005234;28;20046;-70
2021/12/23 10:58:18;;;;;;;32.22;15.43;;;;;;;;;;5002257;28;20057;-71
2021/12/23 11:00:49;;;;;;;32.08;15.20;;;;;;;;;;5004164;28;20492;-71
2021/12/23 11:03:20;;;;;;;34.33;14.15;;;;;;;;;;5003502;28;20104;-71
2021/12/23 11:06:00;;;;;;;35.75;15.45;;;;;;;;;;5004366;28;20062;-71
2021/12/23 11:08:35;;;;;;;41.20;16.70;;;;;;;;;;5003987;28;20053;-71
2021/12/23 11:39:08;;;;;;;34.67;15.43;;;;;;;;;;5061934;28;20118;-72
2021/12/23 11:41:38;;;;;;;34.65;16.42;;;;;;;;;;5060724;28;20056;-72
2021/12/23 11:44:07;;;;;;;29.73;14.85;;;;;;;;;;5058657;28;20514;-70
2021/12/23 11:46:40;;;;;;;29.08;14.85;;;;;;;;;;5055594;28;20065;-70
2021/12/23 11:49:09;;;;;;;31.05;14.68;;;;;;;;;;5036945;28;20049;-70
2021/12/23 11:51:46;;;;;;;31.23;14.35;;;;;;;;;;5033886;28;20060;-71
2021/12/23 11:54:15;;;;;;;32.65;14.95;;;;;;;;;;5040244;28;20045;-72
2021/12/23 11:56:46;;;;;;;36.50;16.67;;;;;;;;;;5034740;28;20136;-70
2021/12/23 11:59:14;;;;;;;34.30;16.35;;;;;;;;;;5039614;28;20136;-70
2021/12/23 12:01:45;;;;;;;36.92;15.52;;;;;;;;;;5035914;28;20049;-70
2021/12/23 12:04:13;;;;;;;38.97;16.90;;;;;;;;;;5039849;28;20057;-70
2021/12/23 12:06:43;;;;;;;37.00;16.13;;;;;;;;;;5036749;28;20049;-70
2021/12/23 12:09:15;;;;;;;34.42;15.90;;;;;;;;;;5038997;28;20165;-70
2021/12/23 12:11:42;;;;;;;34.42;15.63;;;;;;;;;;5037173;28;20129;-70
2021/12/23 12:14:34;;;;;;;29.77;15.18;;;;;;;;;;5037541;28;20132;-69
2021/12/23 12:17:37;;;;;;;36.80;18.20;;;;;;;;;;5036899;28;20046;-71
2021/12/23 12:20:11;;;;;;;33.40;16.25;;;;;;;;;;5033711;28;20045;-71
2021/12/23 12:22:59;;;;;;;30.38;16.23;;;;;;;;;;5039740;28;21649;-71
2021/12/23 12:25:45;;;;;;;30.52;14.82;;;;;;;;;;5034378;28;20124;-72
2021/12/23 12:28:15;;;;;;;32.22;16.27;;;;;;;;;;5036113;28;20053;-71
2021/12/23 12:30:43;;;;;;;26.25;14.05;;;;;;;;;;5037013;28;20047;-71
2021/12/23 12:33:33;;;;;;;30.58;14.55;;;;;;;;;;5033480;28;20137;-71
2021/12/23 12:36:05;;;;;;;22.73;11.93;;;;;;;;;;5032331;28;20045;-71
2021/12/23 12:38:34;;;;;;;25.58;13.23;;;;;;;;;;5029523;28;20164;-71
2021/12/23 12:41:03;;;;;;;26.67;12.65;;;;;;;;;;5022823;28;20572;-69
2021/12/23 12:43:32;;;;;;;28.75;13.55;;;;;;;;;;5017257;28;20059;-71
2021/12/23 12:45:59;;;;;;;26.50;12.77;;;;;;;;;;5013428;28;20130;-71
2021/12/23 12:49:05;;;;;;;26.17;11.77;;;;;;;;;;5013369;28;20152;-71
2021/12/23 12:51:35;;;;;;;19.23;10.30;;;;;;;;;;5018451;28;20621;-71
2021/12/23 12:54:05;;;;;;;20.48;11.05;;;;;;;;;;5017672;28;20123;-71
2021/12/23 12:56:33;;;;;;;21.05;11.35;;;;;;;;;;5014319;28;21010;-71
2021/12/23 12:59:00;;;;;;;18.27;9.63;;;;;;;;;;5014351;28;20059;-71
2021/12/23 13:01:33;;;;;;;18.55;9.65;;;;;;;;;;5015235;28;20501;-71
2021/12/23 13:04:02;;;;;;;18.40;9.20;;;;;;;;;;5015535;28;21391;-70
2021/12/23 13:06:36;;;;;;;19.80;9.88;;;;;;;;;;5015567;28;20751;-70
2021/12/23 13:09:07;;;;;;;18.08;9.73;;;;;;;;;;5015730;28;20041;-71
2021/12/23 13:11:36;;;;;;;17.85;9.30;;;;;;;;;;5013774;28;20748;-71
2021/12/23 13:14:04;;;;;;;21.75;11.05;;;;;;;;;;5018692;28;20069;-71
2021/12/23 13:16:34;;;;;;;19.33;12.27;;;;;;;;;;5014242;28;20507;-69
2021/12/23 13:19:13;;;;;;;17.75;9.05;;;;;;;;;;5015764;28;20057;-69
2021/12/23 13:21:41;;;;;;;19.27;9.57;;;;;;;;;;5011268;28;20583;-69
2021/12/23 13:24:11;;;;;;;16.25;8.05;;;;;;;;;;5011747;28;20187;-69
2021/12/23 13:26:37;;;;;;;14.35;8.18;;;;;;;;;;5010489;28;21361;-68
2021/12/23 13:29:07;;;;;;;12.15;8.05;;;;;;;;;;5012673;28;20053;-68
2021/12/23 13:31:35;;;;;;;14.63;7.93;;;;;;;;;;5009274;28;20064;-69
2021/12/23 13:34:04;;;;;;;14.57;7.97;;;;;;;;;;5013588;28;20051;-69
2021/12/23 13:36:34;;;;;;;13.30;6.47;;;;;;;;;;5009831;28;22224;-69
2021/12/23 13:39:03;;;;;;;11.43;6.30;;;;;;;;;;5008337;28;20053;-69
2021/12/23 13:41:31;;;;;;;13.38;6.72;;;;;;;;;;5013089;28;20073;-69
2021/12/23 13:44:00;;;;;;;13.30;6.43;;;;;;;;;;5013499;28;20948;-69
2021/12/23 13:46:28;;;;;;;14.23;6.70;;;;;;;;;;5007023;28;20060;-69
2021/12/23 13:48:59;;;;;;;14.13;6.25;;;;;;;;;;5009285;28;20046;-68
2021/12/23 13:51:27;;;;;;;11.80;5.90;;;;;;;;;;4993748;28;20056;-69
2021/12/23 13:54:14;;;;;;;14.10;7.05;;;;;;;;;;4993974;28;20058;-68
2021/12/23 13:56:44;;;;;;;11.23;6.95;;;;;;;;;;4995677;28;20140;-68
2021/12/23 13:59:13;;;;;;;15.55;7.50;;;;;;;;;;4992882;28;20059;-69
2021/12/23 14:01:52;;;;;;;12.70;6.85;;;;;;;;;;4992792;28;20152;-68
2021/12/23 14:04:39;;;;;;;15.77;7.25;;;;;;;;;;4996605;28;20057;-69
2021/12/23 14:07:19;;;;;;;16.27;7.10;;;;;;;;;;5000900;28;20057;-68
2021/12/23 14:09:49;;;;;;;10.52;6.20;;;;;;;;;;4999800;28;20054;-68
2021/12/23 14:12:19;;;;;;;12.00;6.13;;;;;;;;;;4996321;28;20058;-68
2021/12/23 14:15:03;;;;;;;13.82;7.15;;;;;;;;;;4995383;28;20056;-68
2021/12/23 14:17:32;;;;;;;15.48;8.20;;;;;;;;;;4990557;28;20052;-68
2021/12/23 14:25:35;;;;;;;16.33;7.18;;;;;;;;;;4993109;28;20168;-68
2021/12/23 14:28:02;;;;;;;11.82;6.15;;;;;;;;;;4993833;28;20051;-68
2021/12/23 14:30:37;;;;;;;12.70;6.00;;;;;;;;;;4991417;28;20056;-68
2021/12/23 14:33:09;;;;;;;15.95;7.13;;;;;;;;;;4990164;28;20056;-68
2021/12/23 14:35:35;;;;;;;25.70;13.15;;;;;;;;;;4993827;28;20047;-68
2021/12/23 14:38:02;;;;;;;26.20;10.93;;;;;;;;;;4991950;28;20132;-68
2021/12/23 14:40:29;;;;;;;19.02;10.60;;;;;;;;;;4993046;28;20710;-68
2021/12/23 14:43:01;;;;;;;13.07;7.22;;;;;;;;;;4995329;28;20140;-68
2021/12/23 14:45:28;;;;;;;16.23;5.65;;;;;;;;;;4992691;28;20664;-68
2021/12/23 14:47:59;;;;;;;13.02;6.45;;;;;;;;;;4991555;28;20049;-68
2021/12/23 14:50:36;;;;;;;10.27;5.43;;;;;;;;;;4993423;28;20076;-68
2021/12/23 14:53:02;;;;;;;10.80;5.25;;;;;;;;;;4991114;28;20056;-68
2021/12/23 14:55:32;;;;;;;13.60;7.15;;;;;;;;;;4993222;28;20056;-68
2021/12/23 14:58:02;;;;;;;11.18;6.03;;;;;;;;;;4994264;28;20049;-68
2021/12/23 15:00:31;;;;;;;14.95;7.90;;;;;;;;;;4993578;28;20493;-68
2021/12/23 15:03:01;;;;;;;14.00;7.47;;;;;;;;;;5006208;28;20052;-68
2021/12/23 15:05:28;;;;;;;15.30;8.35;;;;;;;;;;5011393;28;20072;-68
2021/12/23 15:07:59;;;;;;;16.15;8.60;;;;;;;;;;5006492;28;20063;-68
2021/12/23 15:10:36;;;;;;;10.95;6.63;;;;;;;;;;5004509;28;20062;-68
2021/12/23 15:13:16;;;;;;;12.98;6.22;;;;;;;;;;5008098;28;20059;-68
2021/12/23 15:15:43;;;;;;;11.05;6.63;;;;;;;;;;5011546;28;20045;-68
2021/12/23 15:18:28;;;;;;;10.38;5.97;;;;;;;;;;5012360;28;20054;-68
2021/12/23 15:20:56;;;;;;;13.35;6.03;;;;;;;;;;5006545;28;20058;-68
2021/12/23 15:23:41;;;;;;;12.00;6.47;;;;;;;;;;5006112;28;20042;-68
2021/12/23 15:26:32;;;;;;;15.10;6.78;;;;;;;;;;5003041;28;20136;-68
2021/12/23 15:29:12;;;;;;;12.93;6.68;;;;;;;;;;5009680;28;20068;-68
2021/12/23 15:31:39;;;;;;;13.65;7.10;;;;;;;;;;5008134;28;20055;-68